Neptune Kefalonia — SVBS2 — position and weather

sailwx.info

Track history (hours):
 
Tides and Currents Weather Stations Pressure Air Temp Water Temp Dewpoint Dewpoint Depression Visibility Wind Speed Wind Dir Waves Ship Positions

Neptune Kefalonia

Last reported at 2017-Nov-24 16:30 UTC. Time now 2017-Nov-24 16:49 UTC.
Position N 34°58' W 008°13'.

Length 169 m; draft 7.5 m.

Type: Cargo ship. MMSI: 241241000.

Date/timePositionNaut miles runAvg speedWind from/ knotsBaromVisibWave heightAir tempDewpointWater temp
2017-Nov-24 16:30N 34°58' W 008°13'816.6
2017-Nov-24 16:00N 35°06' W 008°17'816.7
2017-Nov-24 15:30N 35°13' W 008°21'816.4
2017-Nov-24 15:00N 35°21' W 008°25'816.5
2017-Nov-24 14:30N 35°28' W 008°29'816.5
2017-Nov-24 14:00N 35°36' W 008°33'816.7
2017-Nov-24 13:31N 35°44' W 008°37'816.4
2017-Nov-24 13:00N 35°52' W 008°40'816.5
2017-Nov-24 12:30N 35°59' W 008°44'1016.2
2017-Nov-24 11:52N 36°09' W 008°49'616.0
2017-Nov-24 11:30N 36°14' W 008°52'816.3
2017-Nov-24 11:00N 36°21' W 008°56'815.8
2017-Nov-24 10:30N 36°29' W 008°60'815.8
2017-Nov-24 10:00N 36°32' W 009°09'5913.7
2017-Nov-24 05:41N 37°31' W 009°22'316.6
2017-Nov-24 05:31N 37°34' W 009°21'916.6
2017-Nov-24 04:57N 37°42' W 009°18'716.6
2017-Nov-24 04:30N 37°49' W 009°15'816.4
2017-Nov-24 04:00N 37°57' W 009°12'816.2
2017-Nov-24 03:31N 38°05' W 009°08'816.3
2017-Nov-24 03:00N 38°13' W 009°05'816.3
2017-Nov-24 02:30N 38°20' W 009°02'815.6
2017-Nov-24 02:00N 38°27' W 008°58'5 9.3
2017-Nov-24 01:30N 38°31' W 008°54'2 0.5
2017-Nov-23 22:05N 38°31' W 008°52'0 0.0
2017-Nov-23 21:59N 38°31' W 008°52'0 0.0
2017-Nov-23 21:17N 38°31' W 008°52'0 0.0
2017-Nov-23 20:11N 38°31' W 008°52'0 0.0
2017-Nov-23 19:38N 38°31' W 008°52'0 0.0
2017-Nov-23 19:11N 38°31' W 008°52'0 0.0
2017-Nov-23 18:41N 38°31' W 008°52'0 0.0
2017-Nov-23 18:29N 38°31' W 008°52'0 0.0
2017-Nov-23 13:35N 38°31' W 008°52'0 0.2
2017-Nov-23 13:30N 38°31' W 008°52'0 0.1
2017-Nov-23 13:00N 38°31' W 008°52'3 5.3
2017-Nov-23 12:30N 38°30' W 008°55'510.5
2017-Nov-23 12:00N 38°26' W 008°59'611.6
2017-Nov-23 11:30N 38°24' W 009°06'713.7
2017-Nov-23 11:00N 38°23' W 009°15'713.8
2017-Nov-23 10:30N 38°27' W 009°22'713.7
2017-Nov-23 10:00N 38°31' W 009°29'713.6
2017-Nov-23 09:30N 38°35' W 009°37'713.5
2017-Nov-23 09:01N 38°40' W 009°42'713.7
2017-Nov-23 08:30N 38°47' W 009°43'714.1
2017-Nov-23 08:00N 38°54' W 009°43'714.1
2017-Nov-23 07:30N 39°01' W 009°43'714.2
2017-Nov-23 07:00N 39°08' W 009°43'714.5
2017-Nov-23 06:30N 39°16' W 009°43'714.4
2017-Nov-23 06:00N 39°23' W 009°44'714.3
2017-Nov-23 05:30N 39°30' W 009°43'  
2017-Nov-19 14:35N 36°03' W 005°12'110.7
2017-Nov-19 14:30N 36°02' W 005°13'510.8
2017-Nov-19 14:00N 35°60' W 005°18'611.1
2017-Nov-19 13:30N 35°57' W 005°25'6 0.8
2017-Nov-19 05:48N 35°57' W 005°32'310.2
2017-Nov-19 05:30N 35°58' W 005°29'714.3
2017-Nov-19 04:59N 36°01' W 005°21'22415.1
2017-Nov-18 14:10N 37°16' W 000°58'316.1
2017-Nov-18 13:59N 37°18' W 000°55'816.2
2017-Nov-18 13:30N 37°23' W 000°48'1716.1
2017-Nov-18 12:25N 37°36' W 000°32'716.1
2017-Nov-18 12:00N 37°41' W 000°27'23215.9
2017-Nov-17 21:28N 41°03' E 002°01'716.1
2017-Nov-17 21:00N 41°09' E 002°06'182 3.7
2017-Nov-15 19:43N 43°20' E 004°58'2 7.0
2017-Nov-15 19:30N 43°21' E 004°58'2 0.2
2017-Nov-15 10:12N 43°23' E 004°57'210.9
2017-Nov-15 10:00N 43°21' E 004°58'9310.7
2017-Nov-15 01:21N 42°58' E 007°01'515.6
2017-Nov-15 01:00N 42°58' E 007°08'815.5
2017-Nov-15 00:30N 42°59' E 007°19'915.4
2017-Nov-14 23:56N 42°60' E 007°31'715.5
2017-Nov-14 23:30N 43°00' E 007°40'7916.6
2017-Nov-14 18:44N 43°07' E 009°28'417.9
2017-Nov-14 18:30N 43°06' E 009°33'2917.1
2017-Nov-14 16:48N 42°38' E 009°48'  
Track history (hours):
 
Tides and Currents Weather Stations Pressure Air Temp Water Temp Dewpoint Dewpoint Depression Visibility Wind Speed Wind Dir Waves Ship Positions

Neptune Kefalonia

Last reported at 2017-Nov-24 16:30 UTC. Time now 2017-Nov-24 16:49 UTC.
Position N 34°58' W 008°13'.

Length 169 m; draft 7.5 m.

Type: Cargo ship. MMSI: 241241000.

Date/timePositionNaut miles runAvg speedWind from/ knotsBaromVisibWave heightAir tempDewpointWater temp
2017-Nov-24 16:30N 34°58' W 008°13'816.6
2017-Nov-24 16:00N 35°06' W 008°17'816.7
2017-Nov-24 15:30N 35°13' W 008°21'816.4
2017-Nov-24 15:00N 35°21' W 008°25'816.5
2017-Nov-24 14:30N 35°28' W 008°29'816.5
2017-Nov-24 14:00N 35°36' W 008°33'816.7
2017-Nov-24 13:31N 35°44' W 008°37'816.4
2017-Nov-24 13:00N 35°52' W 008°40'816.5
2017-Nov-24 12:30N 35°59' W 008°44'1016.2
2017-Nov-24 11:52N 36°09' W 008°49'616.0
2017-Nov-24 11:30N 36°14' W 008°52'816.3
2017-Nov-24 11:00N 36°21' W 008°56'815.8
2017-Nov-24 10:30N 36°29' W 008°60'815.8
2017-Nov-24 10:00N 36°32' W 009°09'5913.7
2017-Nov-24 05:41N 37°31' W 009°22'316.6
2017-Nov-24 05:31N 37°34' W 009°21'916.6
2017-Nov-24 04:57N 37°42' W 009°18'716.6
2017-Nov-24 04:30N 37°49' W 009°15'816.4
2017-Nov-24 04:00N 37°57' W 009°12'816.2
2017-Nov-24 03:31N 38°05' W 009°08'816.3
2017-Nov-24 03:00N 38°13' W 009°05'816.3
2017-Nov-24 02:30N 38°20' W 009°02'815.6
2017-Nov-24 02:00N 38°27' W 008°58'5 9.3
2017-Nov-24 01:30N 38°31' W 008°54'2 0.5
2017-Nov-23 22:05N 38°31' W 008°52'0 0.0
2017-Nov-23 21:59N 38°31' W 008°52'0 0.0
2017-Nov-23 21:17N 38°31' W 008°52'0 0.0
2017-Nov-23 20:11N 38°31' W 008°52'0 0.0
2017-Nov-23 19:38N 38°31' W 008°52'0 0.0
2017-Nov-23 19:11N 38°31' W 008°52'0 0.0
2017-Nov-23 18:41N 38°31' W 008°52'0 0.0
2017-Nov-23 18:29N 38°31' W 008°52'0 0.0
2017-Nov-23 13:35N 38°31' W 008°52'0 0.2
2017-Nov-23 13:30N 38°31' W 008°52'0 0.1
2017-Nov-23 13:00N 38°31' W 008°52'3 5.3
2017-Nov-23 12:30N 38°30' W 008°55'510.5
2017-Nov-23 12:00N 38°26' W 008°59'611.6
2017-Nov-23 11:30N 38°24' W 009°06'713.7
2017-Nov-23 11:00N 38°23' W 009°15'713.8
2017-Nov-23 10:30N 38°27' W 009°22'713.7
2017-Nov-23 10:00N 38°31' W 009°29'713.6
2017-Nov-23 09:30N 38°35' W 009°37'713.5
2017-Nov-23 09:01N 38°40' W 009°42'713.7
2017-Nov-23 08:30N 38°47' W 009°43'714.1
2017-Nov-23 08:00N 38°54' W 009°43'714.1
2017-Nov-23 07:30N 39°01' W 009°43'714.2
2017-Nov-23 07:00N 39°08' W 009°43'714.5
2017-Nov-23 06:30N 39°16' W 009°43'714.4
2017-Nov-23 06:00N 39°23' W 009°44'714.3
2017-Nov-23 05:30N 39°30' W 009°43'  
2017-Nov-19 14:35N 36°03' W 005°12'110.7
2017-Nov-19 14:30N 36°02' W 005°13'510.8
2017-Nov-19 14:00N 35°60' W 005°18'611.1
2017-Nov-19 13:30N 35°57' W 005°25'6 0.8
2017-Nov-19 05:48N 35°57' W 005°32'310.2
2017-Nov-19 05:30N 35°58' W 005°29'714.3
2017-Nov-19 04:59N 36°01' W 005°21'22415.1
2017-Nov-18 14:10N 37°16' W 000°58'316.1
2017-Nov-18 13:59N 37°18' W 000°55'816.2
2017-Nov-18 13:30N 37°23' W 000°48'1716.1
2017-Nov-18 12:25N 37°36' W 000°32'716.1
2017-Nov-18 12:00N 37°41' W 000°27'23215.9
2017-Nov-17 21:28N 41°03' E 002°01'716.1
2017-Nov-17 21:00N 41°09' E 002°06'182 3.7
2017-Nov-15 19:43N 43°20' E 004°58'2 7.0
2017-Nov-15 19:30N 43°21' E 004°58'2 0.2
2017-Nov-15 10:12N 43°23' E 004°57'210.9
2017-Nov-15 10:00N 43°21' E 004°58'9310.7
2017-Nov-15 01:21N 42°58' E 007°01'515.6
2017-Nov-15 01:00N 42°58' E 007°08'815.5
2017-Nov-15 00:30N 42°59' E 007°19'915.4
2017-Nov-14 23:56N 42°60' E 007°31'715.5
2017-Nov-14 23:30N 43°00' E 007°40'7916.6
2017-Nov-14 18:44N 43°07' E 009°28'417.9
2017-Nov-14 18:30N 43°06' E 009°33'2917.1
2017-Nov-14 16:48N 42°38' E 009°48'  

Dump ship's entire track history